Warning: Javascript must be enabled to use all the features on this page!


Page Loading - Please Wait...

Click to hideNews Bulletins

USGS 02110550 WACCAMAW RIVER ABOVE CONWAY, SC

PROVISIONAL DATA SUBJECT TO REVISION

Click to hidestation-specific text
Funding for this site is provided by the cooperators / programs below:
Click to go to the Horry County Stormwater web page

Horry County Stormwater


This station managed by the South Atlantic WSC Conway Field Office.

Available Parameters Available Period
All 9 Available Parameters for this site
  
00010 Temperature, water 2013-06-22  2018-09-21
00045 Precipitation 2013-10-01  2018-09-21
00060 Discharge 2013-06-22  2018-10-15
00065 Gage height 2013-06-22  2018-10-15
00095 Specific cond at 25C 2013-06-22  2018-09-21
00300 Dissolved oxygen 2013-06-22  2018-09-21
00400 pH 2013-06-22  2018-09-21
63680 Turbidity, Form Neph 2013-06-22  2018-09-21
72255 Mean water velocity 2013-08-13  2018-09-21

Graph
Graph w/ stats
Graph w/o stats
Graph w/ (up to 3) parms
Table
Tab-separated
Days  (13)
 

  -- or --
Begin date
 

End date
 

Summary of all available data for this site
Instantaneous-data availability statement
Gage height, feet
TIMESep 15Sep 16Sep 17Sep 18Sep 19Sep 20Sep 21Sep 22Sep 23Sep 24Sep 25Sep 26Sep 27Sep 28
00:00 EDT3.34P  7.22P  9.29P  10.78P  12.40P  14.24P  16.71P  18.72P  19.59P  19.80P  19.58P  19.14P  18.59P  17.98P  
00:15 EDT3.39P  7.26P  9.33P  10.79P  12.41P  14.23P  16.74P  18.77P  19.61P  19.77P  19.58P  19.14P  18.58P  17.95P  
00:30 EDT3.41P  7.29P  9.35P  10.80P  12.44P  14.27P  16.76P  18.69P  19.60P  19.81P  19.56P  19.13P  18.56P  17.96P  
00:45 EDT3.44P  7.32P  9.37P  10.82P  12.45P  14.28P  16.81P  18.74P  19.61P  19.79P  19.59P  19.13P  18.58P  17.96P  
01:00 EDT3.48P  7.36P  9.39P  10.84P  12.47P  14.29P  16.84P  18.77P  19.62P  19.74P  19.58P  19.11P  18.57P  17.96P  
01:15 EDT3.50P  7.38P  9.41P  10.85P  12.49P  14.33P  16.86P  18.78P  19.63P  19.82P  19.54P  19.11P  18.56P  17.93P  
01:30 EDT3.53P  7.42P  9.43P  10.87P  12.50P  14.34P  16.90P  18.81P  19.62P  19.79P  19.57P  19.10P  18.54P  17.94P  
01:45 EDT3.56P  7.44P  9.45P  10.88P  12.52P  14.37P  16.91P  18.75P  19.64P  19.78P  19.56P  19.11P  18.53P  17.93P  
02:00 EDT3.59P  7.47P  9.47P  10.90P  12.53P  14.41P  16.97P  18.83P  19.61P  19.79P  19.55P  19.07P  18.55P  17.93P  
02:15 EDT3.62P  7.50P  9.49P  10.91P  12.55P  14.42P  16.98P  18.84P  19.63P  19.79P  19.56P  19.10P  18.52P  17.92P  
02:30 EDT3.65P  7.52P  9.50P  10.93P  12.57P  14.44P  17.00P  18.83P  19.64P  19.78P  19.56P  19.09P  18.55P  17.92P  
02:45 EDT3.69P  7.55P  9.52P  10.95P  12.58P  14.46P  17.05P  18.86P  19.64P  19.78P  19.54P  19.06P  18.53P  17.90P  
03:00 EDT3.72P  7.57P  9.54P  10.96P  12.60P  14.50P  17.02P  18.85P  19.65P  19.79P  19.54P  19.06P  18.51P  17.90P  
03:15 EDT3.75P  7.60P  9.56P  10.98P  12.62P  14.52P  17.09P  18.89P  19.63P  19.77P  19.52P  19.04P  18.50P  17.90P  
03:30 EDT3.78P  7.62P  9.58P  10.99P  12.63P  14.55P  17.11P  18.88P  19.64P  19.81P  19.52P  19.04P  18.51P  17.89P  
03:45 EDT3.81P  7.65P  9.60P  11.01P  12.65P  14.58P  17.15P  18.94P  19.64P  19.79P  19.53P  19.04P  18.50P  17.88P  
04:00 EDT3.84P  7.67P  9.61P  11.03P  12.66P  14.59P  17.18P  18.89P  19.65P  19.75P  19.54P  19.03P  18.50P  17.87P  
04:15 EDT3.88P  7.70P  9.64P  11.04P  12.68P  14.61P  17.19P  18.90P  19.69P  19.80P  19.53P  19.06P  18.48P  17.87P  
04:30 EDT3.90P  7.72P  9.65P  11.06P  12.70P  14.64P  17.22P  18.94P  19.64P  19.75P  19.48P  19.04P  18.47P  17.86P  
04:45 EDT3.94P  7.74P  9.67P  11.07P  12.72P  14.67P  17.25P  18.96P  19.67P  19.77P  19.51P  19.04P  18.45P  17.86P  
05:00 EDT3.97P  7.76P  9.69P  11.09P  12.73P  14.68P  17.28P  18.95P  19.67P  19.75P  19.51P  19.04P  18.45P  17.85P  
05:15 EDT4.01P  7.79P  9.71P  11.11P  12.74P  14.72P  17.30P  18.98P  19.66P  19.78P  19.50P  19.03P  18.46P  17.84P  
05:30 EDT4.04P  7.81P  9.72P  11.13P  12.76P  14.74P  17.31P  19.00P  19.69P  19.79P  19.51P  19.02P  18.46P  17.83P  
05:45 EDT4.07P  7.83P  9.75P  11.15P  12.78P  14.76P  17.35P  19.02P  19.70P  19.78P  19.50P  19.01P  18.46P  17.83P  
06:00 EDT4.10P  7.85P  9.77P  11.16P  12.80P  14.77P  17.38P  19.02P  19.70P  19.76P  19.49P  19.00P  18.45P  17.82P  
06:15 EDT4.14P  7.87P  9.79P  11.18P  12.82P  14.80P  17.40P  19.00P  19.65P  19.75P  19.49P  18.96P  18.43P  17.81P  
06:30 EDT4.16P  7.89P  9.81P  11.20P  12.83P  14.82P  17.42P  19.02P  19.72P  19.77P  19.49P  19.00P  18.42P  17.80P  
06:45 EDT4.20P  7.91P  9.82P  11.22P  12.85P  14.84P  17.44P  19.06P  19.72P  19.77P  19.47P  18.98P  18.41P  17.79P  
07:00 EDT4.24P  7.92P  9.84P  11.23P  12.87P  14.88P  17.46P  19.05P  19.71P  19.72P  19.50P  18.96P  18.42P  17.78P  
07:15 EDT4.28P  7.96P  9.86P  11.25P  12.89P  14.90P  17.47P  19.10P  19.74P  19.77P  19.47P  18.98P  18.41P  17.79P  
07:30 EDT4.32P  7.98P  9.88P  11.26P  12.90P  14.92P  17.52P  19.10P  19.72P  19.78P  19.47P  18.97P  18.41P  17.78P  
07:45 EDT4.36P  8.00P  9.89P  11.28P  12.92P  14.95P   19.15P  19.69P  19.78P  19.46P  18.96P  18.42P  17.77P  
08:00 EDT4.40P  8.02P  9.91P  11.31P  12.94P  14.98P   19.12P  19.70P  19.75P  19.48P  18.96P  18.41P  17.77P  
08:15 EDT4.44P  8.04P  9.93P  11.32P  12.96P  15.02P   19.09P  19.70P  19.76P  19.43P  18.97P  18.40P  17.75P  
08:30 EDT4.49P  8.06P  9.94P  11.34P  12.97P  15.03P   19.14P  19.73P  19.76P  19.45P  18.94P  18.40P  17.75P  
08:45 EDT4.53P  8.07P  9.96P  11.36P  12.99P  15.06P   19.13P  19.72P  19.73P  19.43P  18.94P  18.37P  17.76P  
09:00 EDT4.58P  8.09P  9.98P  11.38P  13.01P  15.10P   19.18P  19.73P  19.74P  19.44P  18.94P  18.38P  17.73P  
09:15 EDT4.62P  8.11P  9.99P  11.39P  13.03P  15.12P   19.15P  19.74P  19.76P  19.41P  18.93P  18.37P  17.73P  
09:30 EDT4.66P  8.13P  10.01P  11.40P  13.05P  15.16P   19.19P  19.74P  19.74P  19.41P  18.93P  18.36P  17.72P  
09:45 EDT4.71P  8.15P  10.02P  11.42P  13.06P  15.19P   19.16P  19.76P  19.74P  19.42P  18.90P  18.35P  17.70P  
10:00 EDT4.75P  8.16P  10.04P  11.44P  13.08P  15.22P   19.22P  19.75P  19.76P  19.42P  18.92P  18.33P  17.70P  
10:15 EDT4.79P  8.18P  10.06P  11.46P  13.10P  15.26P   19.18P  19.73P  19.73P  19.40P  18.92P  18.34P  17.71P  
10:30 EDT4.83P  8.20P  10.06P  11.48P  13.12P  15.25P   19.21P  19.76P  19.72P  19.39P  18.92P  18.34P  17.66P  
10:45 EDT4.88P  8.21P  10.08P  11.50P  13.13P  15.30P   19.19P  19.76P  19.73P  19.41P  18.90P  18.32P  17.67P  
11:00 EDT4.92P  8.24P  10.09P  11.52P  13.15P  15.31P  17.82P  19.25P  19.76P  19.72P  19.40P  18.89P  18.29P  17.69P  
11:15 EDT4.97P  8.25P  10.10P  11.52P  13.18P  15.35P  17.85P  19.23P  19.74P  19.74P  19.39P  18.90P  18.31P  17.67P  
11:30 EDT5.01P  8.28P  10.12P  11.55P  13.20P  15.38P  17.89P  19.25P  19.76P  19.71P  19.40P  18.84P  18.29P  17.66P  
11:45 EDT5.05P  8.29P  10.13P  11.56P  13.21P  15.39P  17.90P  19.25P  19.74P  19.70P  19.38P  18.88P  18.31P  17.66P  
12:00 EDT5.10P  8.31P  10.14P  11.58P  13.23P  15.42P  17.91P  19.26P  19.77P  19.72P  19.38P  18.88P  18.31P  17.65P  
12:15 EDT5.14P  8.33P  10.16P  11.60P  13.26P  15.45P  17.94P  19.29P  19.76P  19.72P  19.37P  18.86P  18.29P  17.64P  
12:30 EDT5.17P  8.33P  10.17P  11.62P  13.27P  15.49P  17.95P  19.30P  19.76P  19.71P  19.34P  18.86P  18.28P  17.64P  
12:45 EDT5.21P  8.39P  10.18P  11.64P  13.29P  15.51P  17.99P  19.30P  19.78P  19.69P  19.33P  18.86P  18.29P  17.63P  
13:00 EDT5.25P  8.41P  10.20P  11.66P  13.31P  15.54P  18.00P  19.35P  19.78P  19.71P  19.35P  18.86P  18.27P  17.62P  
13:15 EDT5.29P  8.43P  10.21P  11.67P  13.33P  15.55P  18.01P  19.28P  19.76P  19.72P  19.35P  18.86P  18.25P  17.61P  
13:30 EDT5.33P  8.45P  10.22P  11.69P  13.35P  15.57P  18.04P  19.31P  19.74P  19.72P  19.34P  18.82P  18.25P  17.60P  
13:45 EDT5.37P  8.46P  10.23P  11.71P  13.37P  15.62P  18.05P  19.32P  19.76P  19.72P  19.32P  18.83P  18.25P  17.61P  
14:00 EDT5.41P  8.48P  10.25P  11.73P  13.39P  15.65P  18.07P  19.31P  19.76P  19.70P  19.34P  18.84P  18.24P  17.59P  
14:15 EDT5.44P  8.50P  10.26P  11.75P  13.40P  15.66P  18.09P  19.35P  19.75P  19.68P  19.34P  18.81P  18.24P  17.60P  
14:30 EDT5.49P  8.51P  10.27P  11.77P  13.44P  15.70P  18.11P  19.33P  19.74P  19.67P  19.31P  18.81P  18.22P  17.59P  
14:45 EDT5.53P  8.53P  10.29P  11.78P  13.45P  15.72P  18.13P  19.35P  19.77P  19.68P  19.34P  18.82P  18.22P  17.57P  
15:00 EDT5.56P  8.55P  10.30P  11.79P  13.48P  15.76P  18.13P  19.36P  19.78P  19.67P  19.32P  18.80P  18.22P  17.58P  
15:15 EDT5.61P  8.56P  10.31P  11.81P  13.49P  15.78P  18.17P  19.39P  19.79P  19.71P  19.30P  18.80P  18.20P  17.56P  
15:30 EDT5.65P  8.58P  10.33P  11.83P  13.51P  15.82P  18.16P  19.38P  19.76P  19.69P  19.30P  18.79P  18.21P  17.53P  
15:45 EDT5.70P  8.60P  10.34P  11.85P  13.53P  15.82P  18.19P  19.38P  19.79P  19.67P  19.30P  18.81P  18.20P  17.55P  
16:00 EDT5.76P  8.61P  10.35P  11.87P  13.56P  15.86P  18.22P  19.40P  19.73P  19.65P  19.33P  18.78P  18.16P  17.55P  
16:15 EDT5.80P  8.63P  10.36P  11.88P  13.57P  15.88P  18.26P  19.41P  19.79P  19.70P  19.27P  18.78P  18.19P  17.52P  
16:30 EDT5.88P  8.65P  10.37P  11.90P  13.59P  15.92P  18.25P  19.40P  19.79P  19.68P  19.28P  18.76P  18.17P  17.51P  
16:45 EDT5.92P  8.66P  10.39P  11.92P  13.61P  15.92P  18.29P  19.44P  19.77P  19.66P  19.29P  18.77P  18.17P  17.51P  
17:00 EDT5.97P  8.68P  10.40P  11.93P  13.64P  15.95P  18.28P  19.41P  19.78P  19.64P  19.26P  18.73P  18.17P  17.51P  
17:15 EDT6.01P  8.69P  10.41P  11.95P  13.65P  15.97P  18.29P  19.42P  19.81P  19.65P  19.27P  18.76P  18.16P  17.50P  
17:30 EDT6.07P  8.71P  10.43P  11.96P  13.67P  16.00P  18.34P  19.43P  19.78P  19.65P  19.26P  18.73P  18.15P  17.48P  
17:45 EDT6.12P  8.72P  10.44P  11.99P  13.68P  16.03P  18.34P  19.44P  19.80P  19.67P  19.26P  18.74P  18.14P  17.49P  
18:00 EDT6.17P  8.74P  10.45P  12.00P  13.70P  16.05P  18.37P  19.46P  19.81P  19.66P  19.25P  18.75P  18.13P  17.48P  
18:15 EDT6.22P  8.76P  10.47P  12.02P  13.72P  16.07P  18.34P  19.47P  19.80P  19.64P  19.27P  18.71P  18.12P  17.45P  
18:30 EDT6.28P  8.77P  10.47P  12.03P  13.73P  16.09P  18.38P  19.47P  19.75P  19.67P  19.24P  18.70P  18.08P  17.45P  
18:45 EDT6.35P  8.79P  10.49P  12.05P  13.76P  16.12P  18.39P  19.46P  19.79P  19.67P  19.22P  18.70P  18.10P  17.44P  
19:00 EDT6.40P  8.80P  10.50P  12.07P  13.79P  16.15P  18.42P  19.50P  19.80P  19.65P  19.23P  18.72P  18.11P  17.44P  
19:15 EDT6.45P  8.83P  10.52P  12.08P  13.82P  16.16P  18.43P  19.47P  19.80P  19.66P  19.23P  18.69P  18.09P  17.43P  
19:30 EDT6.50P  8.84P  10.53P  12.10P  13.84P  16.21P  18.46P  19.49P  19.80P  19.65P  19.22P  18.70P  18.09P  17.42P  
19:45 EDT6.55P  8.86P  10.54P  12.11P  13.84P  16.23P  18.45P  19.51P  19.80P  19.63P  19.20P  18.69P  18.08P  17.42P  
20:00 EDT6.59P  8.89P  10.55P  12.14P  13.86P  16.24P  18.49P  19.54P  19.81P  19.65P  19.22P  18.70P  18.08P  17.42P  
20:15 EDT6.64P  8.91P  10.57P  12.16P  13.89P  16.28P  18.45P  19.53P  19.79P  19.65P  19.19P  18.67P  18.07P  17.40P  
20:30 EDT6.69P  8.93P  10.58P  12.17P  13.90P  16.30P  18.52P  19.51P  19.79P  19.62P  19.17P  18.67P  18.07P  17.39P  
20:45 EDT6.73P  8.96P  10.60P  12.19P  13.93P  16.31P  18.53P  19.53P  19.79P  19.63P  19.21P  18.67P  18.05P  17.39P  
21:00 EDT6.77P  9.01P  10.61P  12.20P  13.97P  16.34P  18.55P  19.53P  19.79P  19.64P  19.19P  18.66P  18.04P  17.38P  
21:15 EDT6.81P  9.05P  10.62P  12.22P  13.97P  16.39P  18.53P  19.52P  19.78P  19.59P  19.20P  18.66P  18.04P  17.38P  
21:30 EDT6.85P  9.07P  10.63P  12.24P  13.99P  16.42P  18.58P  19.53P  19.81P  19.63P  19.19P  18.66P  18.02P  17.36P  
21:45 EDT6.88P  9.09P  10.65P  12.25P  14.02P  16.43P  18.58P  19.57P  19.82P  19.62P  19.16P  18.62P  18.04P  17.35P  
22:00 EDT6.92P  9.11P  10.66P  12.27P  14.03P  16.47P  18.58P  19.56P  19.82P  19.60P  19.17P  18.63P  18.04P  17.35P  
22:15 EDT6.96P  9.13P  10.68P  12.29P  14.06P  16.51P  18.60P  19.56P  19.76P  19.61P  19.16P  18.61P  18.01P  17.34P  
22:30 EDT6.99P  9.15P  10.69P  12.30P  14.10P  16.53P  18.64P  19.58P  19.80P  19.59P  19.18P  18.64P  18.00P  17.34P  
22:45 EDT7.02P  9.18P  10.70P  12.32P  14.13P  16.56P  18.65P  19.59P  19.82P  19.60P  19.16P  18.62P  18.02P  17.33P  
23:00 EDT7.08P  9.21P  10.72P  12.34P  14.13P  16.59P  18.65P  19.60P  19.80P  19.57P  19.15P  18.63P  18.01P  17.31P  
23:15 EDT7.11P  9.24P  10.73P  12.35P  14.14P  16.62P  18.68P  19.59P  19.77P  19.60P  19.16P  18.61P  18.02P  17.31P  
23:30 EDT7.14P  9.26P  10.75P  12.36P  14.16P  16.64P  18.68P  19.59P  19.80P  19.59P  19.15P  18.61P  18.00P  17.31P  
23:45 EDT7.19P  9.28P  10.76P  12.39P  14.20P  16.68P  18.68P  19.62P  19.77P  19.61P  19.13P  18.60P  17.96P  17.30P  
COUNT9696969696968396969696969696
MAX7.199.2810.7612.3914.2016.6818.6819.6219.8219.8219.5919.1418.5917.98
MIN3.347.229.2910.7812.4014.2316.7118.6919.5919.5719.1318.6017.9617.30

Explanation
  P  Provisional data subject to revision.